createdAt,value
2022-09-10T00:02:20.528Z,17.20
2022-09-10T00:04:51.204Z,17.10
2022-09-10T00:07:21.566Z,17.10
2022-09-10T00:09:51.883Z,17.10
2022-09-10T00:12:24.554Z,17.10
2022-09-10T00:14:54.792Z,17.00
2022-09-10T00:17:25.008Z,17.00
2022-09-10T00:19:55.343Z,17.00
2022-09-10T00:22:25.827Z,16.90
2022-09-10T00:24:58.257Z,16.90
2022-09-10T00:27:31.085Z,16.90
2022-09-10T00:30:02.799Z,16.90
2022-09-10T00:32:33.005Z,16.90
2022-09-10T00:35:03.379Z,16.80
2022-09-10T00:37:33.979Z,16.90
2022-09-10T00:40:04.517Z,17.00
2022-09-10T00:42:37.379Z,17.00
2022-09-10T00:45:08.779Z,17.00
2022-09-10T00:47:45.048Z,17.00
2022-09-10T00:50:20.715Z,17.00
2022-09-10T00:52:51.797Z,17.10
2022-09-10T00:55:23.731Z,17.10
2022-09-10T00:58:00.419Z,17.00
2022-09-10T01:00:31.793Z,17.10
2022-09-10T01:03:02.329Z,17.10
2022-09-10T01:05:32.625Z,17.10
2022-09-10T01:08:02.780Z,17.00
2022-09-10T01:10:37.927Z,17.00
2022-09-10T01:13:23.693Z,17.00
2022-09-10T01:16:02.018Z,17.10
2022-09-10T01:18:43.806Z,17.00
2022-09-10T01:21:21.168Z,17.00
2022-09-10T01:24:20.752Z,17.00
2022-09-10T01:27:15.293Z,16.90
2022-09-10T01:29:53.731Z,16.90
2022-09-10T01:32:30.360Z,17.00
2022-09-10T01:35:10.489Z,16.90
2022-09-10T01:37:43.044Z,17.00
2022-09-10T01:40:14.809Z,17.00
2022-09-10T01:42:45.775Z,16.90
2022-09-10T01:45:21.359Z,16.90
2022-09-10T01:48:19.332Z,16.90
2022-09-10T01:50:59.656Z,17.00
2022-09-10T01:53:46.112Z,16.90
2022-09-10T01:56:24.612Z,16.90
2022-09-10T01:58:56.623Z,17.00
2022-09-10T02:01:32.075Z,17.00
2022-09-10T02:04:06.896Z,17.00
2022-09-10T02:06:43.056Z,17.00
2022-09-10T02:09:15.513Z,17.00
2022-09-10T02:11:50.313Z,17.00
2022-09-10T02:14:21.278Z,17.00
2022-09-10T02:16:58.908Z,16.90
2022-09-10T02:19:30.432Z,16.90
2022-09-10T02:22:01.685Z,16.90
2022-09-10T02:24:32.040Z,16.90
2022-09-10T02:27:02.360Z,16.90
2022-09-10T02:29:33.549Z,16.90
2022-09-10T02:32:06.727Z,16.90
2022-09-10T02:34:37.093Z,16.90
2022-09-10T02:37:07.618Z,16.80
2022-09-10T02:39:38.507Z,16.90
2022-09-10T02:42:09.238Z,16.80
2022-09-10T02:44:39.427Z,16.90
2022-09-10T02:47:12.493Z,16.80
2022-09-10T02:49:42.825Z,16.80
2022-09-10T02:52:13.017Z,16.70
2022-09-10T02:54:43.193Z,16.70
2022-09-10T02:57:13.447Z,16.80
2022-09-10T02:59:43.683Z,16.70
2022-09-10T03:02:16.405Z,16.70
2022-09-10T03:04:46.603Z,16.70
2022-09-10T03:07:20.199Z,16.70
2022-09-10T03:09:50.828Z,16.70
2022-09-10T03:12:21.703Z,16.70
2022-09-10T03:14:52.235Z,16.70
2022-09-10T03:17:24.897Z,16.70
2022-09-10T03:19:55.164Z,16.70
2022-09-10T03:22:25.405Z,16.70
2022-09-10T03:24:55.639Z,16.70
2022-09-10T03:27:26.347Z,16.70
2022-09-10T03:29:56.515Z,16.70
2022-09-10T03:32:29.646Z,16.70
2022-09-10T03:35:00.260Z,16.70
2022-09-10T03:37:31.531Z,16.70
2022-09-10T03:40:02.005Z,16.70
2022-09-10T03:42:32.220Z,16.70
2022-09-10T03:45:02.591Z,16.70
2022-09-10T03:47:37.200Z,16.70
2022-09-10T03:50:08.759Z,16.70
2022-09-10T03:52:39.005Z,16.70
2022-09-10T03:55:10.784Z,16.70
2022-09-10T03:57:41.854Z,16.80
2022-09-10T04:00:14.859Z,16.80
2022-09-10T04:02:48.464Z,16.80
2022-09-10T04:05:19.326Z,16.70
2022-09-10T04:07:49.531Z,16.70
2022-09-10T04:10:20.790Z,16.70
2022-09-10T04:12:53.268Z,16.70
2022-09-10T04:15:24.094Z,16.60
2022-09-10T04:17:56.759Z,16.70
2022-09-10T04:20:27.628Z,16.70
2022-09-10T04:22:58.003Z,16.60
2022-09-10T04:25:28.258Z,16.60
2022-09-10T04:27:58.467Z,16.60
2022-09-10T04:30:29.051Z,16.60
2022-09-10T04:33:01.780Z,16.60
2022-09-10T04:35:31.880Z,16.60
2022-09-10T04:38:02.000Z,16.60
2022-09-10T04:40:32.269Z,16.60
2022-09-10T04:43:02.428Z,16.50
2022-09-10T04:45:34.899Z,16.50
2022-09-10T04:48:07.816Z,16.60
2022-09-10T04:50:38.682Z,16.60
2022-09-10T04:53:11.492Z,16.50
2022-09-10T04:55:46.073Z,16.50
2022-09-10T04:58:16.485Z,16.50
2022-09-10T05:00:46.780Z,16.50
2022-09-10T05:03:19.556Z,16.50
2022-09-10T05:05:51.244Z,16.60
2022-09-10T05:08:21.277Z,16.50
2022-09-10T05:10:51.859Z,16.50
2022-09-10T05:13:22.157Z,16.40
2022-09-10T05:15:52.423Z,16.40
2022-09-10T05:18:25.847Z,16.40
2022-09-10T05:20:55.921Z,16.50
2022-09-10T05:23:26.400Z,16.50
2022-09-10T05:25:56.978Z,16.40
2022-09-10T05:28:27.269Z,16.40
2022-09-10T05:30:57.501Z,16.50
2022-09-10T05:33:30.257Z,16.50
2022-09-10T05:36:00.549Z,16.40
2022-09-10T05:38:31.639Z,16.40
2022-09-10T05:41:03.361Z,16.40
2022-09-10T05:43:33.454Z,16.40
2022-09-10T05:46:03.732Z,16.40
2022-09-10T05:48:41.373Z,16.40
2022-09-10T05:51:12.086Z,16.30
2022-09-10T05:53:42.168Z,16.30
2022-09-10T05:56:13.157Z,16.30
2022-09-10T05:58:45.234Z,16.40
2022-09-10T06:01:15.737Z,16.40
2022-09-10T06:03:48.751Z,16.50
2022-09-10T06:06:19.875Z,16.40
2022-09-10T06:08:54.418Z,16.50
2022-09-10T06:11:25.382Z,16.40
2022-09-10T06:13:55.486Z,16.50
2022-09-10T06:16:25.818Z,16.60
2022-09-10T06:18:59.568Z,16.60
2022-09-10T06:21:30.359Z,16.60
2022-09-10T06:24:00.740Z,16.60
2022-09-10T06:26:30.931Z,16.60
2022-09-10T06:29:01.037Z,16.60
2022-09-10T06:31:31.306Z,16.60
2022-09-10T06:34:05.436Z,16.70
2022-09-10T06:36:35.747Z,16.70
2022-09-10T06:39:07.306Z,16.70
2022-09-10T06:41:37.779Z,16.70
2022-09-10T06:44:07.903Z,16.70
2022-09-10T06:47:19.683Z,16.70
2022-09-10T06:49:32.196Z,16.70
2022-09-10T06:52:02.492Z,16.80
2022-09-10T06:54:32.660Z,16.80
2022-09-10T06:57:04.831Z,16.70
2022-09-10T06:59:35.138Z,16.80
2022-09-10T07:02:05.471Z,16.80
2022-09-10T07:04:38.380Z,16.80
2022-09-10T07:07:09.462Z,16.80
2022-09-10T07:09:39.689Z,16.90
2022-09-10T07:12:10.305Z,16.90
2022-09-10T07:14:41.131Z,16.90
2022-09-10T07:17:11.200Z,16.90
2022-09-10T07:19:45.224Z,16.80
2022-09-10T07:22:15.493Z,16.80
2022-09-10T07:24:46.413Z,16.90
2022-09-10T07:27:16.801Z,17.50
2022-09-10T07:29:46.901Z,17.00
2022-09-10T07:32:17.276Z,16.90
2022-09-10T07:34:50.163Z,16.80
2022-09-10T07:37:20.435Z,16.80
2022-09-10T07:39:50.557Z,16.90
2022-09-10T07:42:21.412Z,16.80
2022-09-10T07:44:51.242Z,16.80
2022-09-10T07:47:21.801Z,16.80
2022-09-10T07:49:55.159Z,16.80
2022-09-10T07:52:25.384Z,16.80
2022-09-10T07:54:55.497Z,16.70
2022-09-10T07:57:25.869Z,16.70
2022-09-10T07:59:56.491Z,16.70
2022-09-10T08:02:27.447Z,16.70
2022-09-10T08:05:00.245Z,16.70
2022-09-10T08:07:31.625Z,16.70
2022-09-10T08:10:01.796Z,16.80
2022-09-10T08:12:33.998Z,16.80
2022-09-10T08:15:04.175Z,16.80
2022-09-10T08:17:36.469Z,16.80
2022-09-10T08:20:11.418Z,16.90
2022-09-10T08:22:41.626Z,16.80
2022-09-10T08:25:12.315Z,16.90
2022-09-10T08:27:42.387Z,17.00
2022-09-10T08:30:14.863Z,16.90
2022-09-10T08:32:45.083Z,16.90
2022-09-10T08:35:17.973Z,16.90
2022-09-10T08:37:48.919Z,16.90
2022-09-10T08:40:19.214Z,16.90
2022-09-10T08:42:53.111Z,17.00
2022-09-10T08:45:28.441Z,17.00
2022-09-10T08:48:02.647Z,17.00
2022-09-10T08:50:41.083Z,17.00
2022-09-10T08:53:26.233Z,17.10
2022-09-10T08:55:59.306Z,17.10
2022-09-10T08:58:35.875Z,17.10
2022-09-10T09:01:07.784Z,17.20
2022-09-10T09:03:43.244Z,17.20
2022-09-10T09:06:25.925Z,17.20
2022-09-10T09:08:56.829Z,17.10
2022-09-10T09:11:38.119Z,17.30
2022-09-10T09:14:29.540Z,17.20
2022-09-10T09:17:27.006Z,17.20
2022-09-10T09:20:06.218Z,17.30
2022-09-10T09:22:48.814Z,17.30
2022-09-10T09:25:27.521Z,17.30
2022-09-10T09:27:59.288Z,17.40
2022-09-10T09:30:33.749Z,17.40
2022-09-10T09:33:08.677Z,17.30
2022-09-10T09:35:46.051Z,17.20
2022-09-10T09:38:24.535Z,17.20
2022-09-10T09:40:58.338Z,17.20
2022-09-10T09:43:40.966Z,17.20
2022-09-10T09:46:17.631Z,17.20
2022-09-10T09:48:53.650Z,17.30
2022-09-10T09:51:25.485Z,17.30
2022-09-10T09:54:34.675Z,17.30
2022-09-10T09:56:55.007Z,17.30
2022-09-10T09:59:30.446Z,17.40
2022-09-10T10:02:07.363Z,17.40
2022-09-10T10:04:41.967Z,17.40
2022-09-10T10:07:14.522Z,17.40
2022-09-10T10:09:47.341Z,17.50
2022-09-10T10:12:23.292Z,17.50
2022-09-10T10:14:53.530Z,17.50
2022-09-10T10:17:32.861Z,17.50
2022-09-10T10:20:07.971Z,17.60
2022-09-10T10:22:39.510Z,17.70
2022-09-10T10:25:45.707Z,17.60
2022-09-10T10:28:19.544Z,17.70
2022-09-10T10:30:55.270Z,17.60
2022-09-10T10:33:30.239Z,17.60
2022-09-10T10:36:11.235Z,17.60
2022-09-10T10:38:43.565Z,17.60
2022-09-10T10:41:44.233Z,17.60
2022-09-10T10:44:39.631Z,17.70
2022-09-10T10:47:41.070Z,17.60
2022-09-10T10:50:25.637Z,17.60
2022-09-10T10:53:18.433Z,17.60
2022-09-10T10:55:57.388Z,17.60
2022-09-10T10:59:04.583Z,17.60
2022-09-10T11:01:41.825Z,17.70
2022-09-10T11:04:27.267Z,17.70
2022-09-10T11:07:02.549Z,18.00
2022-09-10T11:09:39.163Z,17.80
2022-09-10T11:12:15.012Z,17.70
2022-09-10T11:14:52.518Z,17.70
2022-09-10T11:17:29.688Z,17.60
2022-09-10T11:20:27.125Z,17.60
2022-09-10T11:23:06.315Z,17.60
2022-09-10T11:25:42.525Z,17.60
2022-09-10T11:28:17.356Z,17.60
2022-09-10T11:30:56.136Z,17.60
2022-09-10T11:33:31.669Z,17.60
2022-09-10T11:36:11.420Z,17.70
2022-09-10T11:38:53.256Z,17.70
2022-09-10T11:41:26.823Z,17.80
2022-09-10T11:44:09.907Z,17.90
2022-09-10T11:46:47.723Z,17.90
2022-09-10T11:49:23.169Z,17.90
2022-09-10T11:51:53.846Z,18.00
2022-09-10T11:54:29.053Z,18.00
2022-09-10T11:57:03.800Z,18.00
2022-09-10T11:59:57.515Z,18.00
2022-09-10T12:03:02.443Z,18.10
2022-09-10T12:05:41.153Z,18.10
2022-09-10T12:08:20.604Z,18.10
2022-09-10T12:11:04.619Z,18.10
2022-09-10T12:13:39.516Z,18.10
2022-09-10T12:16:21.754Z,18.20
2022-09-10T12:18:57.638Z,18.20
2022-09-10T12:21:35.535Z,18.20
2022-09-10T12:24:10.731Z,18.20
2022-09-10T12:26:48.029Z,18.20
2022-09-10T12:29:33.663Z,18.20
2022-09-10T12:32:31.775Z,18.20
2022-09-10T12:35:49.371Z,18.20
2022-09-10T12:38:57.968Z,18.30
2022-09-10T12:41:58.095Z,18.20
2022-09-10T12:44:47.789Z,18.20
2022-09-10T12:47:43.478Z,18.20
2022-09-10T12:50:35.362Z,18.30
2022-09-10T12:53:44.597Z,18.40
2022-09-10T12:56:49.340Z,18.40
2022-09-10T12:59:55.490Z,18.50
2022-09-10T13:02:33.319Z,18.60
2022-09-10T13:05:08.519Z,18.70
2022-09-10T13:07:41.833Z,18.80
2022-09-10T13:10:23.112Z,18.90
2022-09-10T13:12:59.673Z,19.00
2022-09-10T13:15:32.769Z,19.00
2022-09-10T13:18:29.170Z,19.10
2022-09-10T13:20:59.769Z,19.20
2022-09-10T13:23:45.216Z,19.20
2022-09-10T13:26:52.596Z,19.10
2022-09-10T13:29:37.765Z,19.10
2022-09-10T13:32:14.231Z,19.10
2022-09-10T13:35:20.024Z,19.10
2022-09-10T13:38:16.097Z,19.10
2022-09-10T13:41:17.545Z,19.00
2022-09-10T13:44:05.666Z,19.00
2022-09-10T13:46:44.372Z,19.00
2022-09-10T13:49:19.938Z,19.00
2022-09-10T13:51:54.697Z,19.00
2022-09-10T13:54:36.907Z,19.10
2022-09-10T13:57:15.046Z,19.10
2022-09-10T13:59:46.642Z,19.10
2022-09-10T14:02:21.572Z,19.10
2022-09-10T14:04:52.137Z,19.20
2022-09-10T14:07:25.853Z,19.20
2022-09-10T14:10:00.514Z,19.20
2022-09-10T14:12:32.549Z,19.20
2022-09-10T14:15:08.561Z,19.30
2022-09-10T14:17:45.311Z,19.30
2022-09-10T14:20:23.674Z,19.40
2022-09-10T14:22:59.428Z,19.40
2022-09-10T14:25:33.562Z,19.50
2022-09-10T14:28:23.748Z,19.70
2022-09-10T14:30:54.789Z,19.80
2022-09-10T14:33:34.467Z,19.80
2022-09-10T14:36:21.002Z,19.60
2022-09-10T14:39:04.548Z,19.70
2022-09-10T14:41:36.573Z,19.70
2022-09-10T14:44:31.465Z,19.60
2022-09-10T14:47:16.535Z,19.60
2022-09-10T14:49:49.247Z,19.60
2022-09-10T14:52:20.221Z,19.70
2022-09-10T14:54:50.427Z,19.60
2022-09-10T14:57:20.993Z,19.60
2022-09-10T14:59:55.283Z,19.60
2022-09-10T15:02:30.354Z,19.60
2022-09-10T15:05:03.356Z,19.60
2022-09-10T15:07:33.584Z,19.70
2022-09-10T15:10:03.777Z,19.60
2022-09-10T15:12:35.972Z,19.60
2022-09-10T15:15:06.440Z,19.50
2022-09-10T15:17:37.945Z,19.50
2022-09-10T15:20:15.059Z,19.50
2022-09-10T15:22:46.684Z,19.50
2022-09-10T15:25:33.850Z,19.30
2022-09-10T15:28:07.203Z,19.30
2022-09-10T15:30:37.650Z,19.30
2022-09-10T15:33:08.807Z,19.30
2022-09-10T15:35:41.958Z,19.30
2022-09-10T15:38:13.575Z,19.30
2022-09-10T15:40:43.841Z,19.30
2022-09-10T15:43:14.058Z,19.30
2022-09-10T15:45:44.193Z,19.20
2022-09-10T15:48:14.556Z,19.10
2022-09-10T15:50:49.000Z,19.10
2022-09-10T15:53:21.536Z,19.10
2022-09-10T15:55:51.710Z,19.10
2022-09-10T15:58:22.006Z,19.10
2022-09-10T16:00:52.878Z,19.10
2022-09-10T16:03:23.489Z,19.10
2022-09-10T16:05:56.123Z,19.00
2022-09-10T16:08:26.504Z,19.00
2022-09-10T16:10:56.812Z,19.00
2022-09-10T16:13:28.018Z,18.90
2022-09-10T16:16:02.839Z,18.90
2022-09-10T16:18:35.666Z,18.90
2022-09-10T16:21:15.672Z,19.00
2022-09-10T16:23:46.989Z,19.00
2022-09-10T16:26:20.209Z,19.00
2022-09-10T16:28:54.352Z,18.90
2022-09-10T16:31:26.133Z,17.50
2022-09-10T16:33:58.965Z,19.00
2022-09-10T16:36:32.656Z,18.90
2022-09-10T16:39:05.360Z,19.00
2022-09-10T16:41:35.904Z,19.00
2022-09-10T16:44:06.498Z,19.00
2022-09-10T16:46:36.644Z,19.00
2022-09-10T16:49:08.822Z,18.90
2022-09-10T16:51:42.322Z,18.90
2022-09-10T16:54:14.080Z,18.90
2022-09-10T16:56:46.154Z,18.90
2022-09-10T16:59:18.854Z,18.90
2022-09-10T17:01:50.229Z,18.90
2022-09-10T17:04:28.278Z,18.90
2022-09-10T17:07:01.437Z,18.90
2022-09-10T17:09:31.697Z,18.90
2022-09-10T17:12:01.941Z,18.90
2022-09-10T17:14:32.269Z,18.80
2022-09-10T17:17:02.440Z,18.80
2022-09-10T17:19:32.702Z,18.80
2022-09-10T17:22:05.511Z,18.80
2022-09-10T17:24:35.989Z,18.80
2022-09-10T17:27:07.078Z,18.80
2022-09-10T17:29:38.833Z,18.80
2022-09-10T17:32:09.059Z,18.70
2022-09-10T17:34:39.327Z,18.70
2022-09-10T17:37:12.088Z,18.70
2022-09-10T17:39:42.401Z,18.70
2022-09-10T17:42:13.248Z,18.70
2022-09-10T17:44:44.590Z,19.00
2022-09-10T17:47:14.728Z,18.70
2022-09-10T17:49:46.288Z,18.60
2022-09-10T17:52:19.067Z,18.60
2022-09-10T17:54:49.449Z,18.50
2022-09-10T17:57:19.579Z,18.50
2022-09-10T17:59:50.030Z,18.50
2022-09-10T18:02:21.388Z,18.50
2022-09-10T18:04:52.601Z,18.40
2022-09-10T18:07:25.495Z,18.30
2022-09-10T18:09:55.830Z,18.30
2022-09-10T18:12:25.989Z,18.40
2022-09-10T18:14:56.352Z,18.40
2022-09-10T18:17:27.231Z,18.30
2022-09-10T18:19:58.505Z,18.30
2022-09-10T18:22:31.249Z,18.30
2022-09-10T18:25:01.528Z,18.20
2022-09-10T18:27:31.587Z,18.20
2022-09-10T18:30:02.434Z,18.20
2022-09-10T18:32:32.708Z,18.10
2022-09-10T18:35:02.978Z,18.10
2022-09-10T18:37:35.953Z,18.10
2022-09-10T18:40:09.671Z,18.10
2022-09-10T18:42:44.726Z,18.00
2022-09-10T18:45:17.611Z,18.00
2022-09-10T18:47:47.829Z,17.90
2022-09-10T18:50:18.391Z,17.90
2022-09-10T18:52:51.278Z,18.00
2022-09-10T18:55:21.604Z,18.00
2022-09-10T18:57:51.848Z,17.90
2022-09-10T19:00:22.290Z,17.90
2022-09-10T19:02:52.517Z,18.00
2022-09-10T19:05:23.100Z,17.90
2022-09-10T19:07:55.914Z,17.80
2022-09-10T19:10:26.210Z,17.80
2022-09-10T19:12:56.527Z,17.80
2022-09-10T19:15:28.154Z,17.80
2022-09-10T19:17:58.278Z,17.80
2022-09-10T19:20:28.735Z,17.80
2022-09-10T19:23:01.482Z,17.80
2022-09-10T19:25:32.826Z,17.80
2022-09-10T19:28:02.965Z,17.80
2022-09-10T19:30:35.780Z,17.80
2022-09-10T19:33:06.167Z,17.80
2022-09-10T19:35:39.044Z,17.70
2022-09-10T19:38:34.024Z,17.70
2022-09-10T19:41:07.635Z,17.70
2022-09-10T19:43:39.133Z,17.70
2022-09-10T19:46:11.176Z,17.60
2022-09-10T19:48:42.425Z,17.60
2022-09-10T19:51:15.554Z,17.60
2022-09-10T19:53:49.624Z,17.50
2022-09-10T19:56:22.088Z,17.50
2022-09-10T19:58:53.686Z,17.50
2022-09-10T20:01:25.838Z,17.50
2022-09-10T20:03:57.236Z,17.50
2022-09-10T20:06:28.280Z,17.50
2022-09-10T20:09:01.139Z,17.40
2022-09-10T20:11:33.612Z,17.30
2022-09-10T20:14:08.053Z,17.30
2022-09-10T20:16:40.217Z,17.20
2022-09-10T20:19:11.081Z,17.20
2022-09-10T20:21:42.557Z,17.20
2022-09-10T20:24:15.483Z,17.10
2022-09-10T20:26:46.879Z,17.10
2022-09-10T20:29:19.361Z,17.00
2022-09-10T20:31:50.381Z,17.00
2022-09-10T20:34:22.427Z,17.00
2022-09-10T20:36:54.173Z,17.00
2022-09-10T20:39:27.826Z,17.00
2022-09-10T20:41:58.100Z,16.90
2022-09-10T20:44:29.365Z,16.90
2022-09-10T20:47:00.867Z,16.90
2022-09-10T20:49:30.937Z,16.80
2022-09-10T20:52:01.193Z,16.80
2022-09-10T20:54:34.009Z,16.80
2022-09-10T20:57:04.541Z,16.80
2022-09-10T20:59:34.791Z,16.60
2022-09-10T21:02:05.121Z,16.60
2022-09-10T21:04:35.923Z,16.50
2022-09-10T21:07:06.147Z,16.50
2022-09-10T21:09:38.907Z,16.50
2022-09-10T21:12:11.691Z,16.50
2022-09-10T21:14:41.835Z,16.40
2022-09-10T21:17:12.068Z,16.40
2022-09-10T21:19:43.180Z,16.40
2022-09-10T21:22:13.686Z,16.40
2022-09-10T21:24:46.386Z,16.30
2022-09-10T21:27:16.684Z,16.30
2022-09-10T21:29:47.292Z,16.30
2022-09-10T21:32:17.702Z,16.40
2022-09-10T21:34:48.428Z,16.40
2022-09-10T21:37:18.630Z,16.50
2022-09-10T21:39:51.493Z,16.50
2022-09-10T21:42:21.794Z,16.50
2022-09-10T21:44:51.944Z,16.50
2022-09-10T21:47:22.328Z,16.50
2022-09-10T21:49:52.632Z,16.50
2022-09-10T21:52:23.044Z,16.50
2022-09-10T21:54:55.871Z,16.40
2022-09-10T21:57:26.616Z,16.40
2022-09-10T21:59:58.676Z,16.40
2022-09-10T22:02:33.039Z,16.40
2022-09-10T22:05:04.004Z,16.40
2022-09-10T22:07:34.332Z,16.40
2022-09-10T22:10:09.493Z,16.30
2022-09-10T22:12:39.931Z,16.30
2022-09-10T22:15:11.429Z,16.30
2022-09-10T22:17:41.807Z,16.30
2022-09-10T22:20:13.050Z,16.20
2022-09-10T22:22:44.474Z,16.10
2022-09-10T22:25:17.399Z,16.10
2022-09-10T22:27:49.690Z,16.10
2022-09-10T22:30:19.985Z,16.10
2022-09-10T22:32:50.296Z,16.10
2022-09-10T22:35:20.899Z,16.00
2022-09-10T22:37:51.199Z,16.10
2022-09-10T22:40:24.063Z,16.00
2022-09-10T22:42:54.703Z,16.00
2022-09-10T22:45:25.193Z,16.00
2022-09-10T22:47:55.464Z,15.90
2022-09-10T22:50:26.230Z,15.90
2022-09-10T22:52:58.161Z,15.90
2022-09-10T22:55:31.966Z,15.90
2022-09-10T22:58:02.478Z,15.80
2022-09-10T23:00:32.564Z,15.80
2022-09-10T23:03:04.905Z,15.70
2022-09-10T23:05:35.595Z,15.80
2022-09-10T23:08:06.133Z,15.70
2022-09-10T23:10:38.907Z,15.80
2022-09-10T23:13:09.117Z,15.70
2022-09-10T23:15:39.733Z,15.70
2022-09-10T23:18:10.137Z,15.70
2022-09-10T23:20:40.422Z,15.70
2022-09-10T23:23:10.727Z,15.70
2022-09-10T23:25:43.608Z,15.70
2022-09-10T23:28:13.910Z,15.70
2022-09-10T23:30:45.738Z,15.70
2022-09-10T23:33:16.027Z,15.70
2022-09-10T23:35:52.838Z,15.60
2022-09-10T23:38:23.104Z,15.60
2022-09-10T23:40:56.143Z,15.60
2022-09-10T23:43:26.429Z,15.50
2022-09-10T23:45:56.505Z,15.50
2022-09-10T23:48:26.825Z,15.50
2022-09-10T23:50:57.677Z,15.50
2022-09-10T23:53:28.130Z,15.40
2022-09-10T23:56:02.902Z,15.40
2022-09-10T23:58:33.484Z,15.40
